Time;durP1;ratioP1;P1;durP2;ratioP2;P2;SDS_P1;SDS_P2;PMS_P1;PMS_P2;Temp;Humidity;BMP_temperature;BMP_pressure;BME280_temperature;BME280_humidity;BME280_pressure;Samples;Min_cycle;Max_cycle;Signal;HPM_P1;HPM_P2
2023/05/21 00:00:42;;;;;;;12.82;11.68;;;14.80;89.70;;;;;;4988959;28;20539;-74
2023/05/21 00:03:12;;;;;;;13.23;11.93;;;14.80;89.80;;;;;;4987418;28;20475;-74
2023/05/21 00:05:39;;;;;;;13.60;12.20;;;14.80;89.90;;;;;;4984685;28;20458;-74
2023/05/21 00:08:06;;;;;;;13.93;12.63;;;14.80;90.00;;;;;;4985682;28;21015;-74
2023/05/21 00:10:32;;;;;;;14.23;12.93;;;14.80;89.70;;;;;;5001072;28;20436;-75
2023/05/21 00:13:00;;;;;;;14.17;12.87;;;14.70;89.80;;;;;;5023565;28;20440;-74
2023/05/21 00:15:27;;;;;;;13.80;12.43;;;14.70;90.30;;;;;;4999148;28;20508;-75
2023/05/21 00:17:54;;;;;;;13.20;11.82;;;14.70;90.40;;;;;;4991862;28;20982;-73
2023/05/21 00:20:21;;;;;;;13.77;12.55;;;14.60;90.40;;;;;;4996489;28;20832;-73
2023/05/21 00:22:47;;;;;;;13.10;11.80;;;14.60;90.60;;;;;;4985895;28;20442;-74
2023/05/21 00:25:14;;;;;;;14.10;12.80;;;14.60;90.70;;;;;;4983390;28;20497;-75
2023/05/21 00:27:41;;;;;;;13.88;12.57;;;14.60;90.80;;;;;;4994191;28;20438;-74
2023/05/21 00:30:10;;;;;;;13.38;12.27;;;14.60;90.90;;;;;;4998946;28;20425;-73
2023/05/21 00:32:36;;;;;;;14.20;12.83;;;14.60;90.80;;;;;;4991429;28;20940;-74
2023/05/21 00:35:03;;;;;;;13.47;12.27;;;14.60;91.00;;;;;;4999157;28;20436;-74
2023/05/21 00:37:33;;;;;;;12.40;11.30;;;14.60;91.00;;;;;;4982673;28;20435;-74
2023/05/21 00:40:00;;;;;;;14.40;13.10;;;14.60;91.10;;;;;;4981357;28;20463;-74
2023/05/21 00:42:29;;;;;;;13.55;12.32;;;14.60;91.20;;;;;;4990071;28;20504;-75
2023/05/21 00:44:56;;;;;;;13.68;12.48;;;14.60;91.10;;;;;;4984137;28;20994;-75
2023/05/21 00:47:25;;;;;;;14.00;12.70;;;14.50;91.10;;;;;;4981882;28;20442;-75
2023/05/21 00:49:52;;;;;;;14.15;12.85;;;14.50;91.10;;;;;;4994206;28;20814;-75
2023/05/21 00:52:20;;;;;;;12.70;11.50;;;14.50;91.30;;;;;;4986076;28;20432;-75
2023/05/21 00:54:49;;;;;;;14.27;12.97;;;14.50;91.40;;;;;;4995553;28;20428;-75
2023/05/21 00:57:19;;;;;;;14.17;12.87;;;14.50;91.50;;;;;;4985929;28;20837;-73
2023/05/21 00:59:46;;;;;;;13.77;12.38;;;14.50;91.40;;;;;;4998947;28;20940;-74
2023/05/21 01:02:16;;;;;;;13.20;12.00;;;14.50;91.40;;;;;;4987213;28;20434;-74
2023/05/21 01:04:45;;;;;;;13.53;12.33;;;14.50;91.50;;;;;;4981405;28;20804;-74
2023/05/21 01:07:13;;;;;;;13.45;12.15;;;14.50;91.50;;;;;;4973077;28;20448;-75
2023/05/21 01:09:40;;;;;;;13.87;12.67;;;14.50;91.50;;;;;;4980306;28;20587;-74
2023/05/21 01:12:08;;;;;;;14.00;12.80;;;14.40;91.50;;;;;;4986797;28;20441;-75
2023/05/21 01:14:36;;;;;;;13.13;11.98;;;14.40;91.70;;;;;;4989302;28;20944;-73
2023/05/21 01:17:05;;;;;;;13.38;12.18;;;14.40;91.50;;;;;;4988548;28;20438;-73
2023/05/21 01:19:34;;;;;;;12.60;11.50;;;14.40;91.60;;;;;;4995023;28;20444;-74
2023/05/21 01:22:05;;;;;;;13.70;12.40;;;14.40;91.50;;;;;;4987175;28;20934;-75
2023/05/21 01:24:33;;;;;;;12.98;11.77;;;14.40;91.60;;;;;;4984667;28;20451;-75
2023/05/21 01:27:01;;;;;;;13.18;12.00;;;14.40;91.60;;;;;;4998835;28;20437;-75
2023/05/21 01:29:28;;;;;;;13.35;12.15;;;14.40;91.60;;;;;;4991465;28;20438;-75
2023/05/21 01:32:03;;;;;;;12.80;11.70;;;14.40;91.70;;;;;;4989645;28;20437;-74
2023/05/21 01:34:36;;;;;;;12.52;11.43;;;14.30;91.70;;;;;;4980217;28;20442;-75
2023/05/21 01:37:12;;;;;;;13.45;12.15;;;14.40;91.90;;;;;;4987138;28;20438;-75
2023/05/21 01:39:44;;;;;;;13.27;12.07;;;14.40;92.00;;;;;;4988442;28;20458;-73
2023/05/21 01:42:11;;;;;;;12.90;11.70;;;14.30;92.00;;;;;;4993789;28;20514;-74
2023/05/21 01:44:39;;;;;;;13.18;11.98;;;14.30;92.00;;;;;;4996785;28;20451;-74
2023/05/21 01:47:06;;;;;;;12.73;11.52;;;14.30;91.90;;;;;;4987842;28;20524;-74
2023/05/21 01:49:34;;;;;;;13.10;12.00;;;14.30;92.00;;;;;;4996061;28;20432;-74
2023/05/21 01:52:01;;;;;;;13.23;12.02;;;14.30;92.10;;;;;;4994704;28;20440;-74
2023/05/21 01:54:28;;;;;;;12.60;11.50;;;14.30;92.30;;;;;;5008256;28;20468;-74
2023/05/21 01:56:56;;;;;;;13.02;11.75;;;14.30;92.40;;;;;;4999815;28;20447;-74
2023/05/21 01:59:23;;;;;;;12.80;11.60;;;14.30;92.40;;;;;;5007486;28;20437;-74
2023/05/21 02:01:50;;;;;;;12.77;11.67;;;14.30;92.40;;;;;;5009435;28;21007;-75
2023/05/21 02:04:16;;;;;;;12.60;11.50;;;14.20;92.30;;;;;;5010702;28;20440;-73
2023/05/21 02:06:43;;;;;;;12.10;11.00;;;14.20;92.40;;;;;;5011740;28;20608;-75
2023/05/21 02:09:10;;;;;;;12.63;11.43;;;14.20;92.40;;;;;;5010912;28;20515;-75
2023/05/21 02:11:37;;;;;;;12.52;11.43;;;14.20;92.40;;;;;;5005828;28;20939;-75
2023/05/21 02:14:06;;;;;;;12.35;11.25;;;14.20;92.60;;;;;;5002121;28;20453;-75
2023/05/21 02:16:33;;;;;;;11.70;10.70;;;14.20;92.70;;;;;;5006896;28;20428;-74
2023/05/21 02:19:00;;;;;;;12.45;11.35;;;14.20;92.70;;;;;;5010144;28;20435;-74
2023/05/21 02:21:27;;;;;;;12.32;11.32;;;14.20;92.60;;;;;;5003701;28;20924;-74
2023/05/21 02:23:53;;;;;;;12.27;11.15;;;14.20;92.50;;;;;;5009280;28;20516;-73
2023/05/21 02:26:20;;;;;;;12.27;11.18;;;14.20;92.50;;;;;;4998890;28;20430;-73
2023/05/21 02:28:47;;;;;;;12.30;11.20;;;14.20;92.70;;;;;;5004241;28;20432;-73
2023/05/21 02:31:15;;;;;;;11.73;10.73;;;14.20;92.80;;;;;;5014839;28;21003;-74
2023/05/21 02:33:42;;;;;;;11.60;10.60;;;14.20;92.60;;;;;;5015367;28;20421;-72
2023/05/21 02:36:11;;;;;;;11.70;10.50;;;14.10;92.60;;;;;;5008802;28;20432;-74
2023/05/21 02:38:39;;;;;;;11.40;10.40;;;14.10;92.60;;;;;;5012219;28;20429;-74
2023/05/21 02:41:06;;;;;;;11.90;10.70;;;14.10;92.80;;;;;;5002113;28;20435;-72
2023/05/21 02:43:32;;;;;;;11.23;10.32;;;14.10;92.90;;;;;;5007225;28;20436;-74
2023/05/21 02:45:59;;;;;;;11.25;10.25;;;14.10;93.00;;;;;;5006599;28;20749;-74
2023/05/21 02:48:27;;;;;;;11.13;10.20;;;14.10;93.10;;;;;;5007828;28;20523;-74
2023/05/21 02:50:54;;;;;;;11.93;10.82;;;14.10;93.10;;;;;;5006578;28;20440;-73
2023/05/21 02:53:21;;;;;;;11.05;10.05;;;14.10;93.00;;;;;;4985615;28;20445;-75
2023/05/21 02:55:47;;;;;;;10.90;10.00;;;14.10;93.10;;;;;;5002000;28;20442;-75
2023/05/21 02:58:14;;;;;;;11.05;9.95;;;14.10;93.20;;;;;;4996459;28;20428;-73
2023/05/21 03:00:41;;;;;;;11.20;10.18;;;14.10;93.20;;;;;;5000565;28;20432;-73
2023/05/21 03:03:08;;;;;;;11.00;10.00;;;14.10;93.30;;;;;;4993404;28;20544;-73
2023/05/21 03:05:36;;;;;;;10.85;9.75;;;14.10;93.20;;;;;;4990248;28;20793;-72
2023/05/21 03:08:02;;;;;;;10.80;9.82;;;14.10;93.20;;;;;;4993712;28;20429;-73
2023/05/21 03:10:29;;;;;;;10.10;9.20;;;14.10;93.40;;;;;;4985208;28;20441;-73
2023/05/21 03:12:56;;;;;;;11.20;10.20;;;14.10;93.50;;;;;;4986895;28;20441;-74
2023/05/21 03:15:23;;;;;;;10.17;9.27;;;14.10;93.50;;;;;;4988299;28;20582;-72
2023/05/21 03:17:49;;;;;;;11.20;10.30;;;14.10;93.50;;;;;;4984391;28;21171;-73
2023/05/21 03:20:17;;;;;;;10.87;9.87;;;14.10;93.30;;;;;;4991938;28;20426;-74
2023/05/21 03:22:47;;;;;;;11.20;10.20;;;14.10;93.30;;;;;;4986367;28;20435;-73
2023/05/21 03:25:14;;;;;;;10.63;9.60;;;14.10;93.30;;;;;;4979524;28;20535;-74
2023/05/21 03:27:41;;;;;;;10.65;9.75;;;14.10;93.40;;;;;;4978412;28;20508;-72
2023/05/21 03:30:09;;;;;;;11.32;10.43;;;14.10;93.40;;;;;;4993186;28;20435;-73
2023/05/21 03:32:37;;;;;;;10.80;9.90;;;14.10;93.50;;;;;;4986342;28;20440;-74
2023/05/21 03:35:04;;;;;;;10.83;9.73;;;14.10;93.50;;;;;;4989998;28;20425;-73
2023/05/21 03:37:31;;;;;;;11.13;10.00;;;14.10;93.60;;;;;;4980427;28;20499;-74
2023/05/21 03:39:59;;;;;;;10.60;9.60;;;14.10;93.60;;;;;;4979180;28;20442;-73
2023/05/21 03:42:26;;;;;;;11.15;10.05;;;14.10;93.60;;;;;;4983696;28;20444;-73
2023/05/21 03:44:52;;;;;;;10.70;9.70;;;14.10;93.70;;;;;;4974377;28;20442;-73
2023/05/21 03:47:19;;;;;;;11.30;10.40;;;14.10;93.80;;;;;;4978945;28;20804;-72
2023/05/21 03:49:46;;;;;;;11.25;10.15;;;14.10;93.80;;;;;;4996369;28;20440;-73
2023/05/21 03:52:12;;;;;;;11.45;10.45;;;14.10;93.60;;;;;;4990123;28;20720;-73
2023/05/21 03:54:39;;;;;;;11.00;10.10;;;14.10;93.60;;;;;;5008790;28;20417;-73
2023/05/21 03:57:07;;;;;;;11.13;10.13;;;14.10;93.90;;;;;;5003031;28;20514;-73
2023/05/21 03:59:34;;;;;;;12.05;10.85;;;14.10;93.90;;;;;;4999238;28;20430;-73
2023/05/21 04:02:01;;;;;;;11.55;10.50;;;14.10;93.50;;;;;;5005535;28;20433;-74
2023/05/21 04:04:28;;;;;;;11.65;10.55;;;14.10;93.90;;;;;;5002646;28;21053;-72
2023/05/21 04:06:55;;;;;;;11.63;10.63;;;14.10;94.10;;;;;;5000965;28;20464;-73
2023/05/21 04:09:21;;;;;;;11.60;10.50;;;14.10;94.00;;;;;;5011252;28;20452;-73
2023/05/21 04:11:48;;;;;;;11.60;10.60;;;14.10;93.90;;;;;;5007765;28;20553;-73
2023/05/21 04:14:16;;;;;;;13.48;12.07;;;14.10;93.80;;;;;;4999057;28;20437;-72
2023/05/21 04:16:43;;;;;;;11.30;10.20;;;14.10;93.60;;;;;;5003441;28;20924;-74
2023/05/21 04:19:10;;;;;;;11.65;10.55;;;14.10;93.60;;;;;;5006380;28;20577;-73
2023/05/21 04:21:37;;;;;;;11.15;10.25;;;14.10;93.70;;;;;;4996816;28;20445;-75
2023/05/21 04:24:03;;;;;;;11.75;10.65;;;14.20;93.60;;;;;;5005367;28;20428;-74
2023/05/21 04:26:32;;;;;;;10.73;9.82;;;14.20;93.70;;;;;;4999792;28;20436;-72
2023/05/21 04:29:01;;;;;;;10.02;9.23;;;14.20;93.80;;;;;;5002417;28;20428;-73
2023/05/21 04:31:30;;;;;;;11.13;10.23;;;14.20;93.70;;;;;;5004122;28;20443;-73
2023/05/21 04:33:58;;;;;;;11.30;10.20;;;14.20;93.50;;;;;;5000290;28;20528;-73
2023/05/21 04:36:27;;;;;;;11.40;10.50;;;14.20;93.50;;;;;;5007309;28;20460;-75
2023/05/21 04:38:54;;;;;;;10.73;9.73;;;14.20;93.40;;;;;;5013000;28;20811;-75
2023/05/21 04:41:21;;;;;;;10.80;9.90;;;14.20;93.50;;;;;;5014658;28;20440;-73
2023/05/21 04:43:48;;;;;;;10.68;9.77;;;14.20;93.60;;;;;;5001267;28;20440;-73
2023/05/21 04:46:14;;;;;;;10.90;9.90;;;14.30;93.40;;;;;;5006206;28;20447;-75
2023/05/21 04:48:43;;;;;;;11.50;10.38;;;14.30;93.40;;;;;;5005559;28;20785;-74
2023/05/21 04:51:10;;;;;;;11.25;10.25;;;14.30;93.30;;;;;;5003979;28;20441;-73
2023/05/21 04:53:37;;;;;;;10.63;9.65;;;14.30;93.30;;;;;;5002688;28;20438;-73
2023/05/21 04:56:04;;;;;;;11.13;10.15;;;14.40;93.40;;;;;;5010980;28;20475;-73
2023/05/21 04:58:33;;;;;;;10.70;9.70;;;14.30;93.40;;;;;;5008586;28;20435;-74
2023/05/21 05:01:01;;;;;;;10.23;9.32;;;14.30;93.30;;;;;;4999082;28;20449;-74
2023/05/21 05:03:29;;;;;;;10.20;9.30;;;14.40;93.40;;;;;;5004153;28;20437;-74
2023/05/21 05:05:57;;;;;;;10.05;9.15;;;14.40;93.30;;;;;;5004156;28;20444;-73
2023/05/21 05:08:24;;;;;;;10.50;9.60;;;14.40;93.30;;;;;;5010461;28;20440;-72
2023/05/21 05:10:51;;;;;;;9.65;8.75;;;14.40;93.30;;;;;;5005745;28;20519;-75
2023/05/21 05:13:18;;;;;;;11.18;10.07;;;14.40;93.30;;;;;;5002064;28;20439;-75
2023/05/21 05:15:44;;;;;;;10.30;9.40;;;14.50;93.50;;;;;;5005135;28;20440;-74
2023/05/21 05:18:11;;;;;;;10.20;9.40;;;14.50;93.20;;;;;;5009176;28;20995;-74
2023/05/21 05:20:38;;;;;;;10.23;9.30;;;14.60;93.30;;;;;;5004657;28;20428;-73
2023/05/21 05:23:06;;;;;;;10.43;9.48;;;14.60;93.00;;;;;;4998930;28;21079;-73
2023/05/21 05:25:33;;;;;;;10.15;9.35;;;14.60;92.80;;;;;;5012620;28;20447;-72
2023/05/21 05:28:00;;;;;;;9.80;9.00;;;14.60;92.60;;;;;;5003534;28;20412;-72
2023/05/21 05:30:26;;;;;;;10.75;9.85;;;14.60;92.60;;;;;;5015564;28;20430;-72
2023/05/21 05:32:53;;;;;;;10.93;9.98;;;14.60;92.50;;;;;;5022303;28;20431;-73
2023/05/21 05:35:20;;;;;;;10.10;9.30;;;14.60;92.40;;;;;;5023847;28;20965;-72
2023/05/21 05:37:47;;;;;;;10.15;9.35;;;14.70;92.50;;;;;;5008652;28;20908;-73
2023/05/21 05:40:16;;;;;;;9.80;9.00;;;14.80;92.70;;;;;;5011419;28;20491;-73
2023/05/21 05:42:43;;;;;;;10.48;9.57;;;14.80;92.80;;;;;;5013375;28;20430;-73
2023/05/21 05:45:11;;;;;;;10.60;9.60;;;14.80;92.60;;;;;;4996184;28;20775;-73
2023/05/21 05:47:37;;;;;;;10.55;9.65;;;14.90;92.40;;;;;;5007877;28;20440;-73
2023/05/21 05:50:05;;;;;;;10.93;10.02;;;14.90;92.10;;;;;;5006780;28;20939;-73
2023/05/21 05:52:32;;;;;;;10.25;9.40;;;14.90;92.00;;;;;;4999077;28;20434;-73
2023/05/21 05:54:58;;;;;;;10.15;9.25;;;15.00;92.20;;;;;;4993973;28;20793;-75
2023/05/21 05:57:26;;;;;;;9.50;8.70;;;15.00;92.30;;;;;;5006955;28;20512;-72
2023/05/21 05:59:53;;;;;;;10.30;9.50;;;15.10;92.20;;;;;;5011118;28;20431;-72
2023/05/21 06:02:20;;;;;;;10.30;9.20;;;15.10;92.10;;;;;;5004511;28;20441;-70
2023/05/21 06:04:46;;;;;;;9.80;9.00;;;15.10;91.90;;;;;;5008712;28;20808;-67
2023/05/21 06:07:13;;;;;;;10.00;9.20;;;15.10;91.60;;;;;;5001889;28;20428;-64
2023/05/21 06:09:40;;;;;;;9.98;9.07;;;15.10;91.40;;;;;;5008594;28;20843;-64
2023/05/21 06:12:07;;;;;;;10.30;9.40;;;15.10;91.30;;;;;;5020346;28;20419;-63
2023/05/21 06:14:35;;;;;;;10.30;9.50;;;15.20;91.50;;;;;;5015494;28;20963;-62
2023/05/21 06:17:03;;;;;;;11.27;10.27;;;15.20;91.40;;;;;;5004781;28;20516;-64
2023/05/21 06:19:30;;;;;;;10.85;9.95;;;15.20;91.10;;;;;;5004898;28;20440;-64
2023/05/21 06:21:56;;;;;;;10.45;9.50;;;15.20;91.20;;;;;;5013856;28;20452;-65
2023/05/21 06:24:23;;;;;;;11.00;10.10;;;15.20;91.10;;;;;;5009496;28;20884;-64
2023/05/21 06:26:50;;;;;;;11.55;10.35;;;15.30;91.20;;;;;;5013838;28;20454;-65
2023/05/21 06:29:16;;;;;;;10.60;9.75;;;15.30;91.20;;;;;;5010169;28;20503;-64
2023/05/21 06:31:45;;;;;;;11.27;10.10;;;15.40;90.80;;;;;;5008786;28;20447;-64
2023/05/21 06:34:11;;;;;;;10.57;9.68;;;15.40;90.90;;;;;;5003401;28;20436;-64
2023/05/21 06:36:38;;;;;;;11.40;10.40;;;15.50;90.90;;;;;;5009348;28;20417;-63
2023/05/21 06:39:05;;;;;;;11.18;10.18;;;15.60;90.40;;;;;;5012058;28;20448;-67
2023/05/21 06:41:32;;;;;;;11.77;10.88;;;15.60;90.10;;;;;;4999618;28;20692;-69
2023/05/21 06:43:58;;;;;;;11.40;10.40;;;15.70;90.10;;;;;;5001906;28;20444;-68
2023/05/21 06:46:25;;;;;;;11.68;10.57;;;15.80;90.20;;;;;;5003773;28;20901;-69
2023/05/21 06:48:53;;;;;;;10.82;9.93;;;15.80;89.90;;;;;;5001966;28;20444;-70
2023/05/21 06:51:20;;;;;;;11.35;10.45;;;15.90;89.10;;;;;;5009712;28;20943;-68
2023/05/21 06:53:46;;;;;;;10.60;9.80;;;16.00;89.00;;;;;;5000631;28;20438;-67
2023/05/21 06:56:13;;;;;;;11.52;10.52;;;16.10;89.00;;;;;;5004843;28;20494;-68
2023/05/21 06:58:40;;;;;;;11.13;10.13;;;16.20;87.70;;;;;;5007217;28;20444;-69
2023/05/21 07:01:07;;;;;;;10.68;9.77;;;16.20;87.80;;;;;;5018341;28;20440;-68
2023/05/21 07:03:33;;;;;;;11.17;10.27;;;16.40;87.60;;;;;;5014153;28;20930;-69
2023/05/21 07:06:01;;;;;;;10.90;10.00;;;16.50;87.40;;;;;;5008020;28;20441;-70
2023/05/21 07:08:28;;;;;;;11.30;10.20;;;16.60;86.80;;;;;;5003546;28;20432;-68
2023/05/21 07:10:55;;;;;;;11.80;10.80;;;16.80;85.80;;;;;;5014572;28;20419;-67
2023/05/21 07:13:22;;;;;;;11.05;10.02;;;17.00;83.80;;;;;;5010360;28;20452;-68
2023/05/21 07:15:49;;;;;;;11.00;10.20;;;17.10;84.00;;;;;;5007667;28;20444;-66
2023/05/21 07:18:16;;;;;;;11.55;10.45;;;17.20;80.90;;;;;;5007817;28;20468;-67
2023/05/21 07:20:43;;;;;;;10.35;9.45;;;17.20;81.10;;;;;;5008922;28;20475;-66
2023/05/21 07:23:11;;;;;;;9.88;9.15;;;17.30;82.80;;;;;;5007728;28;20523;-69
2023/05/21 07:25:37;;;;;;;10.13;9.32;;;17.50;81.60;;;;;;5007432;28;20439;-69
2023/05/21 07:28:05;;;;;;;10.25;9.45;;;17.60;81.20;;;;;;5009624;28;20424;-69
2023/05/21 07:30:31;;;;;;;10.32;9.52;;;17.90;80.60;;;;;;5007015;28;20434;-68
2023/05/21 07:32:58;;;;;;;10.48;9.68;;;18.00;79.30;;;;;;5002683;28;20440;-70
2023/05/21 07:35:25;;;;;;;10.65;9.75;;;18.10;77.20;;;;;;5008289;28;20416;-67
2023/05/21 07:37:51;;;;;;;10.77;9.90;;;18.10;77.40;;;;;;5011618;28;20436;-69
2023/05/21 07:40:19;;;;;;;9.60;8.90;;;18.10;77.60;;;;;;5008685;28;20439;-68
2023/05/21 07:42:46;;;;;;;10.70;9.80;;;18.20;77.40;;;;;;5001034;28;20966;-68
2023/05/21 07:45:13;;;;;;;10.43;9.63;;;18.30;76.00;;;;;;4997505;28;20438;-68
2023/05/21 07:47:40;;;;;;;10.63;9.82;;;18.30;76.60;;;;;;5007433;28;20416;-67
2023/05/21 07:50:08;;;;;;;11.48;10.40;;;18.30;75.20;;;;;;5009051;28;20444;-69
2023/05/21 07:52:35;;;;;;;10.77;9.87;;;18.20;76.10;;;;;;5003830;28;20451;-68
2023/05/21 07:55:02;;;;;;;11.00;10.10;;;18.10;77.00;;;;;;5006256;28;20422;-68
2023/05/21 07:57:30;;;;;;;10.93;9.93;;;18.00;76.90;;;;;;4992493;28;20432;-68
2023/05/21 07:59:57;;;;;;;10.20;9.40;;;17.90;77.40;;;;;;4992269;28;21017;-69
2023/05/21 08:02:24;;;;;;;10.68;9.88;;;17.90;77.60;;;;;;4976097;28;20431;-65
2023/05/21 08:04:53;;;;;;;11.18;10.27;;;17.90;77.50;;;;;;4998120;28;20504;-66
2023/05/21 08:07:20;;;;;;;11.53;10.63;;;17.80;77.70;;;;;;5000041;28;20508;-66
2023/05/21 08:09:47;;;;;;;10.13;9.32;;;17.80;77.60;;;;;;4984494;28;20927;-71
2023/05/21 08:12:14;;;;;;;10.40;9.53;;;17.80;78.30;;;;;;4996040;28;20440;-71
2023/05/21 08:14:42;;;;;;;10.85;10.05;;;17.80;78.20;;;;;;5002010;28;20428;-71
2023/05/21 08:17:10;;;;;;;12.85;11.75;;;17.90;77.60;;;;;;5000693;28;20416;-69
2023/05/21 08:19:36;;;;;;;10.00;9.30;;;17.90;77.90;;;;;;5017957;28;20410;-73
2023/05/21 08:22:05;;;;;;;10.88;9.98;;;18.00;77.70;;;;;;4999270;28;20431;-72
2023/05/21 08:24:32;;;;;;;9.80;8.90;;;18.20;77.90;;;;;;4999474;28;20434;-73
2023/05/21 08:26:58;;;;;;;9.40;8.70;;;18.30;77.80;;;;;;4989918;28;20443;-72
2023/05/21 08:29:25;;;;;;;9.73;9.00;;;18.50;77.50;;;;;;4976826;28;20438;-71
2023/05/21 08:31:53;;;;;;;10.10;9.30;;;18.70;76.30;;;;;;4978261;28;20499;-73
2023/05/21 08:34:20;;;;;;;10.10;9.20;;;19.00;75.00;;;;;;4987642;28;20532;-73
2023/05/21 08:36:48;;;;;;;10.63;9.73;;;19.20;74.00;;;;;;4982587;28;20452;-73
2023/05/21 08:39:15;;;;;;;10.77;9.82;;;19.40;72.00;;;;;;4978274;28;20434;-72
2023/05/21 08:41:48;;;;;;;8.63;7.93;;;19.60;71.20;;;;;;4982769;28;20475;-73
2023/05/21 08:44:17;;;;;;;9.10;8.40;;;19.70;71.00;;;;;;4970886;28;20443;-73
2023/05/21 08:46:49;;;;;;;9.73;8.93;;;19.90;70.50;;;;;;4990972;28;20441;-72
2023/05/21 08:49:22;;;;;;;10.80;10.00;;;20.10;69.90;;;;;;4979489;28;20443;-73
2023/05/21 08:51:50;;;;;;;10.25;9.35;;;20.20;67.70;;;;;;4999964;28;20507;-73
2023/05/21 08:54:17;;;;;;;9.30;8.50;;;20.20;68.10;;;;;;5017098;28;20897;-72
2023/05/21 08:56:45;;;;;;;8.48;7.80;;;20.20;68.50;;;;;;5016754;28;20425;-72
2023/05/21 08:59:13;;;;;;;9.40;8.60;;;20.40;68.50;;;;;;5007124;28;20442;-74
2023/05/21 09:01:42;;;;;;;9.53;8.80;;;20.70;67.20;;;;;;5001366;28;20797;-72
2023/05/21 09:04:10;;;;;;;8.70;8.10;;;20.80;66.70;;;;;;4996929;28;20488;-74
2023/05/21 09:06:40;;;;;;;9.50;8.80;;;20.90;66.40;;;;;;5002404;28;20438;-72
2023/05/21 09:09:13;;;;;;;8.88;8.07;;;21.10;65.40;;;;;;5011486;28;20424;-73
2023/05/21 09:11:41;;;;;;;8.65;7.90;;;21.10;65.70;;;;;;5007436;28;20437;-74
2023/05/21 09:14:08;;;;;;;9.70;8.80;;;21.20;65.20;;;;;;5004732;28;20436;-72
2023/05/21 09:16:34;;;;;;;10.23;9.40;;;21.20;64.40;;;;;;5008501;28;20432;-74
2023/05/21 09:19:01;;;;;;;8.30;7.50;;;21.20;64.90;;;;;;5000602;28;20804;-68
2023/05/21 09:21:30;;;;;;;8.43;7.73;;;21.20;66.00;;;;;;5008404;28;20456;-67
2023/05/21 09:24:00;;;;;;;8.10;7.40;;;21.50;65.00;;;;;;5005451;28;20842;-67
2023/05/21 09:26:27;;;;;;;9.52;8.73;;;21.90;64.10;;;;;;5005180;28;20492;-65
2023/05/21 09:28:57;;;;;;;8.70;8.00;;;22.00;61.10;;;;;;5001988;28;20436;-63
2023/05/21 09:31:25;;;;;;;7.90;7.20;;;22.10;61.60;;;;;;5004543;28;20912;-63
2023/05/21 09:33:52;;;;;;;7.88;7.20;;;22.30;62.10;;;;;;5002074;28;20869;-65
2023/05/21 09:36:19;;;;;;;8.27;7.57;;;22.50;61.40;;;;;;5011410;28;20423;-64
2023/05/21 09:38:47;;;;;;;7.65;6.95;;;22.80;60.60;;;;;;5006162;28;20501;-65
2023/05/21 09:41:15;;;;;;;13.35;11.65;;;23.10;59.80;;;;;;5011197;28;20454;-63
2023/05/21 09:43:43;;;;;;;8.00;7.40;;;23.40;72.60;;;;;;5007487;28;20495;-64
2023/05/21 09:46:10;;;;;;;7.88;7.28;;;23.60;59.50;;;;;;5003862;28;20680;-64
2023/05/21 09:48:39;;;;;;;8.07;7.30;;;23.80;56.70;;;;;;5000038;28;20810;-64
2023/05/21 09:51:17;;;;;;;8.82;8.13;;;23.90;55.60;;;;;;5009530;28;20437;-63
2023/05/21 09:53:45;;;;;;;7.55;6.95;;;23.90;54.70;;;;;;5005068;28;20429;-64
2023/05/21 09:56:11;;;;;;;7.45;6.80;;;23.80;55.90;;;;;;5017166;28;20441;-63
2023/05/21 09:58:40;;;;;;;7.55;7.05;;;23.90;55.40;;;;;;5005096;28;20440;-64
2023/05/21 10:01:07;;;;;;;8.00;7.40;;;24.10;54.70;;;;;;5007729;28;20436;-63
2023/05/21 10:03:39;;;;;;;7.77;7.13;;;24.20;54.10;;;;;;5006002;28;20529;-64
2023/05/21 10:06:08;;;;;;;8.30;7.50;;;24.40;53.20;;;;;;5009517;28;20932;-65
2023/05/21 10:08:38;;;;;;;7.90;7.20;;;24.40;53.20;;;;;;5009518;28;20412;-67
2023/05/21 10:11:06;;;;;;;8.30;7.60;;;24.50;53.50;;;;;;5010387;28;20413;-63
2023/05/21 10:13:38;;;;;;;10.27;7.75;;;24.60;53.00;;;;;;4997648;28;20450;-64
2023/05/21 10:16:06;;;;;;;7.65;6.95;;;24.70;52.30;;;;;;5001758;28;20443;-64
2023/05/21 10:18:33;;;;;;;8.82;7.93;;;24.70;52.60;;;;;;4999737;28;20434;-62
2023/05/21 10:21:01;;;;;;;9.73;9.03;;;24.70;51.90;;;;;;5004012;28;20933;-62
2023/05/21 10:23:29;;;;;;;8.10;7.40;;;24.80;52.30;;;;;;4997422;28;20815;-62
2023/05/21 10:25:57;;;;;;;8.32;7.63;;;24.80;52.10;;;;;;5006022;28;20437;-62
2023/05/21 10:28:25;;;;;;;8.43;7.72;;;24.80;51.80;;;;;;5005166;28;20436;-62
2023/05/21 10:30:53;;;;;;;8.00;7.20;;;24.80;52.00;;;;;;4999283;28;20440;-62
2023/05/21 10:33:23;;;;;;;9.23;8.33;;;24.80;51.70;;;;;;5005635;28;20436;-63
2023/05/21 10:35:51;;;;;;;9.95;9.15;;;24.70;50.90;;;;;;4997317;28;20436;-61
2023/05/21 10:38:19;;;;;;;8.70;8.00;;;24.60;50.70;;;;;;4998684;28;20468;-63
2023/05/21 10:40:47;;;;;;;8.53;7.93;;;24.50;52.30;;;;;;4999466;28;20468;-63
2023/05/21 10:43:38;;;;;;;8.70;7.90;;;24.50;52.10;;;;;;5008211;28;20444;-64
2023/05/21 10:46:30;;;;;;;8.30;7.70;;;24.50;52.70;;;;;;5003908;28;20439;-63
2023/05/21 10:49:16;;;;;;;9.05;8.25;;;24.60;52.10;;;;;;4997710;28;20917;-63
2023/05/21 10:51:53;;;;;;;9.32;8.63;;;24.60;51.80;;;;;;5007217;28;20432;-65
2023/05/21 10:55:10;;;;;;;9.02;8.43;;;24.70;51.80;;;;;;4994009;28;20425;-64
2023/05/21 10:57:56;;;;;;;9.05;8.45;;;24.80;51.00;;;;;;4938818;28;20444;-64
2023/05/21 11:00:25;;;;;;;7.75;7.15;;;25.00;50.80;;;;;;4989080;28;20429;-64
2023/05/21 11:02:52;;;;;;;9.00;8.30;;;25.10;50.20;;;;;;4990849;28;20425;-64
2023/05/21 11:05:38;;;;;;;8.80;8.00;;;25.30;50.40;;;;;;4993861;28;20783;-63
2023/05/21 11:08:06;;;;;;;9.13;8.50;;;25.20;50.50;;;;;;4992947;28;20483;-65
2023/05/21 11:10:38;;;;;;;9.00;8.25;;;25.30;50.00;;;;;;5007789;28;20440;-66
2023/05/21 11:13:10;;;;;;;8.43;7.80;;;25.40;50.10;;;;;;4988681;28;20489;-66
2023/05/21 11:16:13;;;;;;;9.00;8.20;;;25.50;49.60;;;;;;4996572;28;20422;-66
2023/05/21 11:19:02;;;;;;;9.15;8.45;;;25.60;49.40;;;;;;4991528;28;20416;-65
2023/05/21 11:21:31;;;;;;;8.35;7.75;;;25.70;49.00;;;;;;5000678;28;20440;-64
2023/05/21 11:24:03;;;;;;;8.60;8.00;;;25.80;48.90;;;;;;4995621;28;20448;-66
2023/05/21 11:26:51;;;;;;;8.50;7.80;;;25.80;48.60;;;;;;5004395;28;20456;-67
2023/05/21 11:29:19;;;;;;;8.27;7.57;;;25.90;48.30;;;;;;4985999;28;20461;-64
2023/05/21 11:31:47;;;;;;;9.00;8.40;;;26.00;48.10;;;;;;4986745;28;20462;-65
2023/05/21 11:34:15;;;;;;;9.50;8.80;;;26.10;48.00;;;;;;5002906;28;20422;-67
2023/05/21 11:36:45;;;;;;;9.23;8.52;;;26.20;47.60;;;;;;4990603;28;20895;-65
2023/05/21 11:39:16;;;;;;;9.05;8.45;;;26.30;47.70;;;;;;4985980;28;20523;-67
2023/05/21 11:41:53;;;;;;;9.20;8.57;;;26.30;47.40;;;;;;4968947;28;21026;-66
2023/05/21 11:44:37;;;;;;;10.00;9.30;;;26.30;47.00;;;;;;4981037;28;20441;-66
2023/05/21 11:47:04;;;;;;;10.10;9.40;;;26.30;47.10;;;;;;4977288;28;20432;-67
2023/05/21 11:49:31;;;;;;;9.05;8.45;;;26.30;47.30;;;;;;4992594;28;20446;-66
2023/05/21 11:52:00;;;;;;;8.65;8.05;;;26.50;47.10;;;;;;5008109;28;20422;-65
2023/05/21 11:54:28;;;;;;;8.75;8.15;;;26.40;46.90;;;;;;5029135;28;20997;-65
2023/05/21 11:56:55;;;;;;;8.32;7.82;;;26.40;47.00;;;;;;5018703;28;20516;-65
2023/05/21 11:59:22;;;;;;;9.63;8.82;;;26.30;46.90;;;;;;5006213;28;20428;-65
2023/05/21 12:01:49;;;;;;;9.10;8.45;;;26.40;47.40;;;;;;5003478;28;20448;-64
2023/05/21 12:04:15;;;;;;;8.50;7.90;;;26.70;46.80;;;;;;5004788;28;20817;-65
2023/05/21 12:06:43;;;;;;;8.05;7.45;;;26.70;47.30;;;;;;5009427;28;20515;-64
2023/05/21 12:09:12;;;;;;;8.85;8.23;;;26.80;45.80;;;;;;5008814;28;20424;-65
2023/05/21 12:11:40;;;;;;;7.93;7.35;;;26.80;45.80;;;;;;5009942;28;20417;-65
2023/05/21 12:14:10;;;;;;;7.85;7.20;;;26.90;45.50;;;;;;5001551;28;20912;-64
2023/05/21 12:16:37;;;;;;;7.50;7.00;;;27.10;45.20;;;;;;5001900;28;20473;-67
2023/05/21 12:19:04;;;;;;;8.32;7.63;;;27.30;45.00;;;;;;5008776;28;20437;-64
2023/05/21 12:21:31;;;;;;;8.23;7.55;;;27.30;44.90;;;;;;5011407;28;20440;-65
2023/05/21 12:23:58;;;;;;;7.82;7.13;;;27.30;45.00;;;;;;5012607;28;20445;-66
2023/05/21 12:26:26;;;;;;;8.73;8.02;;;27.30;44.90;;;;;;5017011;28;20434;-67
2023/05/21 12:28:54;;;;;;;8.70;7.90;;;27.40;44.80;;;;;;5012955;28;20413;-67
2023/05/21 12:31:26;;;;;;;8.05;7.55;;;27.50;44.50;;;;;;5011345;28;20428;-67
2023/05/21 12:33:53;;;;;;;8.15;7.45;;;27.80;44.20;;;;;;5013072;28;20429;-66
2023/05/21 12:36:27;;;;;;;7.80;7.10;;;27.90;44.10;;;;;;5011413;28;20432;-67
2023/05/21 12:38:55;;;;;;;8.20;7.60;;;27.90;43.70;;;;;;5013078;28;20420;-67
2023/05/21 12:41:22;;;;;;;7.80;7.10;;;28.00;43.60;;;;;;5007416;28;20438;-66